createdAt,value
2023-05-05T00:00:50.933Z,13.22
2023-05-05T00:01:50.915Z,13.22
2023-05-05T00:02:50.972Z,13.21
2023-05-05T00:03:50.982Z,13.20
2023-05-05T00:04:50.880Z,13.19
2023-05-05T00:05:50.903Z,13.18
2023-05-05T00:06:50.865Z,13.17
2023-05-05T00:07:50.828Z,13.17
2023-05-05T00:08:50.864Z,13.15
2023-05-05T00:09:50.804Z,13.14
2023-05-05T00:10:50.870Z,13.12
2023-05-05T00:11:50.782Z,13.11
2023-05-05T00:12:50.815Z,13.10
2023-05-05T00:13:50.787Z,13.08
2023-05-05T00:14:50.764Z,13.07
2023-05-05T00:15:50.738Z,13.05
2023-05-05T00:16:50.760Z,13.04
2023-05-05T00:17:50.737Z,13.02
2023-05-05T00:18:50.884Z,13.00
2023-05-05T00:19:50.685Z,12.99
2023-05-05T00:20:50.694Z,12.98
2023-05-05T00:21:50.663Z,12.98
2023-05-05T00:22:50.672Z,12.97
2023-05-05T00:23:50.647Z,12.96
2023-05-05T00:24:50.659Z,12.95
2023-05-05T00:25:50.612Z,12.95
2023-05-05T00:26:50.889Z,12.95
2023-05-05T00:27:50.877Z,12.94
2023-05-05T00:28:50.607Z,12.94
2023-05-05T00:29:50.607Z,12.93
2023-05-05T00:30:50.625Z,12.92
2023-05-05T00:31:50.547Z,12.91
2023-05-05T00:32:50.577Z,12.91
2023-05-05T00:33:50.532Z,12.90
2023-05-05T00:34:50.592Z,12.90
2023-05-05T00:35:50.513Z,12.90
2023-05-05T00:36:50.566Z,12.90
2023-05-05T00:37:50.480Z,12.90
2023-05-05T00:38:50.475Z,12.90
2023-05-05T00:39:50.458Z,12.89
2023-05-05T00:40:50.478Z,12.89
2023-05-05T00:41:50.440Z,12.89
2023-05-05T00:42:50.593Z,12.89
2023-05-05T00:43:50.409Z,12.88
2023-05-05T00:44:50.423Z,12.88
2023-05-05T00:45:50.400Z,12.88
2023-05-05T00:46:50.427Z,12.88
2023-05-05T00:47:50.393Z,12.88
2023-05-05T00:48:50.406Z,12.88
2023-05-05T00:49:50.331Z,12.88
2023-05-05T00:50:50.610Z,12.88
2023-05-05T00:51:50.331Z,12.89
2023-05-05T00:52:50.323Z,12.89
2023-05-05T00:53:50.320Z,12.89
2023-05-05T00:54:50.642Z,12.90
2023-05-05T00:55:50.265Z,12.90
2023-05-05T00:56:50.297Z,12.90
2023-05-05T00:57:50.254Z,12.90
2023-05-05T00:58:50.668Z,12.90
2023-05-05T00:59:50.233Z,12.90
2023-05-05T01:00:50.341Z,12.89
2023-05-05T01:01:50.228Z,12.89
2023-05-05T01:02:50.262Z,12.88
2023-05-05T01:03:50.253Z,12.88
2023-05-05T01:04:50.191Z,12.87
2023-05-05T01:05:50.187Z,12.86
2023-05-05T01:06:50.700Z,12.85
2023-05-05T01:07:50.145Z,12.84
2023-05-05T01:08:50.154Z,12.84
2023-05-05T01:10:15.278Z,12.83
2023-05-05T01:10:51.110Z,12.83
2023-05-05T01:11:50.077Z,12.82
2023-05-05T01:12:50.204Z,12.82
2023-05-05T01:13:50.056Z,12.82
2023-05-05T01:14:50.084Z,12.82
2023-05-05T01:15:50.078Z,12.82
2023-05-05T01:16:50.168Z,12.82
2023-05-05T01:17:50.090Z,12.82
2023-05-05T01:18:50.155Z,12.81
2023-05-05T01:19:50.009Z,12.81
2023-05-05T01:20:49.989Z,12.81
2023-05-05T01:21:50.732Z,12.81
2023-05-05T01:22:50.752Z,12.80
2023-05-05T01:23:49.945Z,12.80
2023-05-05T01:24:50.763Z,12.80
2023-05-05T01:25:49.921Z,12.80
2023-05-05T01:26:49.929Z,12.79
2023-05-05T01:27:50.256Z,12.79
2023-05-05T01:28:49.896Z,12.79
2023-05-05T01:29:49.901Z,12.78
2023-05-05T01:30:49.874Z,12.77
2023-05-05T01:31:49.880Z,12.77
2023-05-05T01:32:49.893Z,12.76
2023-05-05T01:33:49.831Z,12.76
2023-05-05T01:34:49.990Z,12.75
2023-05-05T01:35:50.013Z,12.74
2023-05-05T01:36:49.811Z,12.72
2023-05-05T01:37:49.774Z,12.71
2023-05-05T01:38:49.785Z,12.71
2023-05-05T01:39:49.747Z,12.70
2023-05-05T01:40:49.841Z,12.69
2023-05-05T01:41:49.728Z,12.68
2023-05-05T01:42:49.824Z,12.68
2023-05-05T01:43:50.241Z,12.67
2023-05-05T01:44:49.720Z,12.66
2023-05-05T01:45:49.702Z,12.66
2023-05-05T01:46:49.838Z,12.65
2023-05-05T01:47:49.685Z,12.65
2023-05-05T01:48:49.849Z,12.64
2023-05-05T01:49:50.232Z,12.64
2023-05-05T01:50:49.855Z,12.63
2023-05-05T01:51:49.616Z,12.63
2023-05-05T01:52:49.871Z,12.63
2023-05-05T01:53:50.553Z,12.62
2023-05-05T01:54:49.877Z,12.61
2023-05-05T01:55:49.623Z,12.60
2023-05-05T01:56:49.601Z,12.58
2023-05-05T01:57:49.549Z,12.56
2023-05-05T01:58:49.618Z,12.55
2023-05-05T01:59:49.516Z,12.54
2023-05-05T02:00:49.529Z,12.52
2023-05-05T02:01:49.647Z,12.51
2023-05-05T02:02:49.845Z,12.50
2023-05-05T02:03:49.475Z,12.48
2023-05-05T02:04:49.677Z,12.48
2023-05-05T02:05:49.448Z,12.47
2023-05-05T02:06:49.732Z,12.46
2023-05-05T02:07:49.749Z,12.45
2023-05-05T02:08:49.426Z,12.44
2023-05-05T02:09:49.428Z,12.42
2023-05-05T02:10:49.704Z,12.41
2023-05-05T02:11:49.386Z,12.39
2023-05-05T02:12:49.832Z,12.38
2023-05-05T02:13:49.459Z,12.37
2023-05-05T02:14:49.855Z,12.36
2023-05-05T02:15:49.877Z,12.35
2023-05-05T02:16:49.357Z,12.33
2023-05-05T02:17:49.422Z,12.32
2023-05-05T02:18:49.336Z,12.31
2023-05-05T02:19:49.386Z,12.30
2023-05-05T02:20:49.286Z,12.29
2023-05-05T02:21:49.283Z,12.28
2023-05-05T02:22:49.472Z,12.26
2023-05-05T02:23:49.258Z,12.25
2023-05-05T02:24:49.235Z,12.23
2023-05-05T02:25:49.567Z,12.21
2023-05-05T02:26:49.607Z,12.20
2023-05-05T02:27:49.226Z,12.18
2023-05-05T02:28:49.443Z,12.16
2023-05-05T02:29:49.496Z,12.15
2023-05-05T02:30:49.745Z,12.13
2023-05-05T02:31:49.464Z,12.12
2023-05-05T02:32:49.146Z,12.12
2023-05-05T02:33:49.284Z,12.10
2023-05-05T02:34:49.808Z,12.09
2023-05-05T02:35:49.117Z,12.08
2023-05-05T02:36:49.937Z,12.06
2023-05-05T02:37:49.329Z,12.05
2023-05-05T02:38:49.772Z,12.03
2023-05-05T02:39:49.071Z,12.02
2023-05-05T02:40:49.049Z,12.01
2023-05-05T02:41:50.097Z,11.99
2023-05-05T02:42:49.058Z,11.98
2023-05-05T02:43:49.519Z,11.97
2023-05-05T02:44:49.033Z,11.96
2023-05-05T02:45:49.004Z,11.95
2023-05-05T02:46:49.058Z,11.94
2023-05-05T02:47:49.121Z,11.94
2023-05-05T02:48:48.970Z,11.93
2023-05-05T02:49:48.993Z,11.93
2023-05-05T02:50:48.950Z,11.93
2023-05-05T02:51:48.948Z,11.93
2023-05-05T02:52:48.909Z,11.93
2023-05-05T02:53:48.937Z,11.93
2023-05-05T02:54:48.885Z,11.92
2023-05-05T02:55:48.911Z,11.91
2023-05-05T02:56:48.877Z,11.91
2023-05-05T02:57:49.030Z,11.90
2023-05-05T02:58:48.852Z,11.89
2023-05-05T02:59:49.008Z,11.89
2023-05-05T03:00:48.844Z,11.88
2023-05-05T03:01:49.052Z,11.88
2023-05-05T03:02:48.872Z,11.87
2023-05-05T03:03:48.885Z,11.87
2023-05-05T03:04:48.775Z,11.86
2023-05-05T03:05:48.810Z,11.85
2023-05-05T03:06:48.837Z,11.84
2023-05-05T03:07:48.752Z,11.83
2023-05-05T03:08:48.915Z,11.83
2023-05-05T03:09:48.741Z,11.82
2023-05-05T03:10:48.959Z,11.82
2023-05-05T03:11:49.006Z,11.82
2023-05-05T03:12:48.772Z,11.81
2023-05-05T03:13:49.029Z,11.81
2023-05-05T03:14:48.679Z,11.81
2023-05-05T03:15:48.687Z,11.81
2023-05-05T03:16:48.672Z,11.81
2023-05-05T03:17:48.673Z,11.81
2023-05-05T03:18:48.625Z,11.81
2023-05-05T03:19:48.617Z,11.81
2023-05-05T03:20:48.729Z,11.82
2023-05-05T03:21:48.582Z,11.82
2023-05-05T03:22:48.558Z,11.82
2023-05-05T03:23:48.765Z,11.82
2023-05-05T03:24:48.539Z,11.82
2023-05-05T03:25:48.539Z,11.82
2023-05-05T03:26:48.800Z,11.82
2023-05-05T03:27:48.517Z,11.82
2023-05-05T03:28:48.508Z,11.82
2023-05-05T03:29:48.650Z,11.82
2023-05-05T03:30:48.479Z,11.82
2023-05-05T03:31:48.503Z,11.81
2023-05-05T03:32:48.694Z,11.81
2023-05-05T03:33:48.450Z,11.81
2023-05-05T03:34:48.442Z,11.81
2023-05-05T03:35:48.441Z,11.81
2023-05-05T03:36:48.410Z,11.81
2023-05-05T03:37:48.976Z,11.81
2023-05-05T03:38:48.980Z,11.81
2023-05-05T03:39:48.372Z,11.81
2023-05-05T03:40:48.354Z,11.82
2023-05-05T03:41:48.377Z,11.82
2023-05-05T03:42:48.324Z,11.82
2023-05-05T03:43:48.327Z,11.82
2023-05-05T03:44:48.313Z,11.82
2023-05-05T03:45:48.344Z,11.82
2023-05-05T03:46:48.276Z,11.82
2023-05-05T03:47:48.336Z,11.82
2023-05-05T03:48:48.250Z,11.81
2023-05-05T03:49:48.267Z,11.81
2023-05-05T03:50:48.307Z,11.80
2023-05-05T03:51:48.250Z,11.80
2023-05-05T03:52:48.229Z,11.80
2023-05-05T03:53:48.290Z,11.80
2023-05-05T03:54:48.188Z,11.79
2023-05-05T03:55:48.191Z,11.79
2023-05-05T03:56:48.171Z,11.78
2023-05-05T03:57:48.172Z,11.78
2023-05-05T03:58:48.184Z,11.77
2023-05-05T03:59:48.176Z,11.76
2023-05-05T04:00:48.132Z,11.75
2023-05-05T04:01:48.116Z,11.74
2023-05-05T04:02:48.131Z,11.73
2023-05-05T04:03:48.181Z,11.73
2023-05-05T04:04:48.095Z,11.73
2023-05-05T04:05:48.080Z,11.73
2023-05-05T04:06:49.500Z,11.73
2023-05-05T04:07:48.060Z,11.73
2023-05-05T04:08:48.046Z,11.73
2023-05-05T04:09:48.798Z,11.74
2023-05-05T04:10:48.005Z,11.74
2023-05-05T04:11:48.007Z,11.74
2023-05-05T04:12:48.077Z,11.74
2023-05-05T04:13:48.001Z,11.74
2023-05-05T04:14:48.074Z,11.74
2023-05-05T04:15:47.996Z,11.75
2023-05-05T04:16:47.945Z,11.75
2023-05-05T04:17:48.729Z,11.75
2023-05-05T04:18:47.940Z,11.76
2023-05-05T04:19:49.005Z,11.76
2023-05-05T04:20:47.901Z,11.76
2023-05-05T04:21:47.903Z,11.76
2023-05-05T04:22:47.882Z,11.77
2023-05-05T04:23:47.906Z,11.77
2023-05-05T04:24:47.841Z,11.77
2023-05-05T04:25:48.942Z,11.77
2023-05-05T04:26:47.847Z,11.77
2023-05-05T04:27:47.841Z,11.77
2023-05-05T04:28:47.813Z,11.76
2023-05-05T04:29:47.818Z,11.76
2023-05-05T04:30:47.849Z,11.76
2023-05-05T04:31:47.829Z,11.76
2023-05-05T04:32:47.776Z,11.76
2023-05-05T04:33:47.786Z,11.76
2023-05-05T04:34:47.738Z,11.77
2023-05-05T04:35:47.731Z,11.78
2023-05-05T04:36:47.720Z,11.79
2023-05-05T04:37:47.698Z,11.79
2023-05-05T04:38:47.754Z,11.80
2023-05-05T04:39:47.803Z,11.80
2023-05-05T04:40:47.668Z,11.81
2023-05-05T04:41:47.865Z,11.81
2023-05-05T04:42:47.875Z,11.82
2023-05-05T04:43:47.908Z,11.83
2023-05-05T04:44:47.641Z,11.84
2023-05-05T04:45:47.921Z,11.86
2023-05-05T04:46:47.974Z,11.87
2023-05-05T04:47:48.000Z,11.89
2023-05-05T04:48:47.878Z,11.90
2023-05-05T04:49:47.992Z,11.92
2023-05-05T04:50:47.552Z,11.95
2023-05-05T04:51:47.550Z,11.97
2023-05-05T04:52:47.533Z,12.00
2023-05-05T04:53:47.532Z,12.03
2023-05-05T04:54:47.512Z,12.05
2023-05-05T04:55:47.516Z,12.08
2023-05-05T04:56:47.473Z,12.12
2023-05-05T04:57:47.498Z,12.16
2023-05-05T04:58:47.507Z,12.20
2023-05-05T04:59:47.503Z,12.25
2023-05-05T05:00:47.527Z,12.30
2023-05-05T05:01:47.531Z,12.35
2023-05-05T05:02:47.481Z,12.40
2023-05-05T05:03:47.642Z,12.44
2023-05-05T05:04:47.380Z,12.47
2023-05-05T05:05:47.502Z,12.49
2023-05-05T05:06:47.367Z,12.51
2023-05-05T05:07:47.528Z,12.53
2023-05-05T05:08:47.348Z,12.55
2023-05-05T05:09:47.336Z,12.56
2023-05-05T05:10:47.309Z,12.58
2023-05-05T05:11:47.512Z,12.60
2023-05-05T05:12:47.313Z,12.62
2023-05-05T05:13:47.291Z,12.63
2023-05-05T05:14:47.260Z,12.65
2023-05-05T05:15:47.523Z,12.67
2023-05-05T05:16:47.490Z,12.68
2023-05-05T05:17:47.270Z,12.71
2023-05-05T05:18:47.214Z,12.73
2023-05-05T05:19:47.518Z,12.76
2023-05-05T05:20:47.204Z,12.79
2023-05-05T05:21:47.494Z,12.82
2023-05-05T05:22:47.194Z,12.85
2023-05-05T05:23:47.168Z,12.88
2023-05-05T05:24:47.137Z,12.91
2023-05-05T05:25:47.146Z,12.93
2023-05-05T05:26:47.123Z,12.96
2023-05-05T05:27:52.330Z,12.98
2023-05-05T05:28:48.099Z,13.00
2023-05-05T05:29:47.119Z,13.02
2023-05-05T05:30:47.068Z,13.03
2023-05-05T05:31:47.124Z,13.05
2023-05-05T05:32:47.074Z,13.06
2023-05-05T05:33:47.065Z,13.08
2023-05-05T05:34:47.013Z,13.09
2023-05-05T05:35:47.025Z,13.11
2023-05-05T05:36:47.008Z,13.12
2023-05-05T05:37:47.133Z,13.13
2023-05-05T05:38:47.002Z,13.14
2023-05-05T05:39:46.979Z,13.16
2023-05-05T05:40:46.979Z,13.18
2023-05-05T05:41:46.954Z,13.19
2023-05-05T05:42:46.946Z,13.21
2023-05-05T05:43:46.943Z,13.23
2023-05-05T05:44:46.917Z,13.25
2023-05-05T05:45:47.186Z,13.27
2023-05-05T05:46:47.140Z,13.29
2023-05-05T05:47:47.161Z,13.33
2023-05-05T05:48:46.904Z,13.38
2023-05-05T05:49:46.861Z,13.45
2023-05-05T05:50:46.840Z,13.54
2023-05-05T05:51:46.851Z,13.62
2023-05-05T05:52:46.808Z,13.70
2023-05-05T05:53:46.847Z,13.77
2023-05-05T05:54:46.792Z,13.84
2023-05-05T05:55:46.799Z,13.92
2023-05-05T05:56:46.772Z,13.99
2023-05-05T05:57:46.763Z,14.05
2023-05-05T05:58:46.758Z,14.11
2023-05-05T05:59:46.749Z,14.16
2023-05-05T06:00:46.709Z,14.21
2023-05-05T06:01:46.961Z,14.25
2023-05-05T06:02:46.818Z,14.28
2023-05-05T06:03:46.845Z,14.31
2023-05-05T06:04:46.668Z,14.33
2023-05-05T06:05:46.668Z,14.35
2023-05-05T06:06:46.641Z,14.38
2023-05-05T06:07:46.654Z,14.40
2023-05-05T06:08:46.618Z,14.43
2023-05-05T06:09:47.061Z,14.46
2023-05-05T06:10:46.590Z,14.50
2023-05-05T06:11:46.598Z,14.54
2023-05-05T06:12:46.601Z,14.59
2023-05-05T06:13:46.597Z,14.62
2023-05-05T06:14:46.553Z,14.66
2023-05-05T06:15:46.564Z,14.69
2023-05-05T06:16:46.521Z,14.72
2023-05-05T06:17:46.628Z,14.75
2023-05-05T06:18:46.529Z,14.78
2023-05-05T06:19:46.504Z,14.81
2023-05-05T06:20:46.490Z,14.84
2023-05-05T06:21:46.477Z,14.89
2023-05-05T06:22:46.454Z,14.93
2023-05-05T06:23:46.464Z,14.99
2023-05-05T06:24:46.436Z,15.04
2023-05-05T06:25:46.450Z,15.09
2023-05-05T06:26:46.410Z,15.14
2023-05-05T06:27:46.447Z,15.19
2023-05-05T06:28:46.379Z,15.27
2023-05-05T06:29:46.409Z,15.36
2023-05-05T06:30:46.363Z,15.47
2023-05-05T06:31:46.454Z,15.60
2023-05-05T06:32:46.353Z,15.72
2023-05-05T06:33:47.185Z,15.83
2023-05-05T06:34:46.340Z,15.91
2023-05-05T06:35:46.313Z,15.99
2023-05-05T06:36:46.364Z,16.07
2023-05-05T06:37:46.276Z,16.17
2023-05-05T06:38:46.914Z,16.29
2023-05-05T06:39:46.262Z,16.41
2023-05-05T06:40:46.921Z,16.52
2023-05-05T06:41:47.079Z,16.65
2023-05-05T06:42:46.239Z,16.78
2023-05-05T06:43:46.209Z,16.92
2023-05-05T06:44:46.217Z,17.06
2023-05-05T06:45:46.206Z,17.16
2023-05-05T06:46:46.244Z,17.21
2023-05-05T06:47:46.191Z,17.24
2023-05-05T06:48:46.189Z,17.25
2023-05-05T06:49:46.149Z,17.26
2023-05-05T06:50:46.165Z,17.26
2023-05-05T06:51:46.127Z,17.25
2023-05-05T06:52:46.123Z,17.25
2023-05-05T06:53:46.110Z,17.26
2023-05-05T06:54:46.092Z,17.27
2023-05-05T06:55:46.070Z,17.30
2023-05-05T06:56:46.089Z,17.35
2023-05-05T06:57:46.187Z,17.44
2023-05-05T06:58:46.051Z,17.55
2023-05-05T06:59:46.026Z,17.68
2023-05-05T07:00:46.069Z,17.85
2023-05-05T07:01:46.032Z,18.02
2023-05-05T07:02:46.004Z,18.16
2023-05-05T07:03:46.070Z,18.26
2023-05-05T07:04:45.976Z,18.36
2023-05-05T07:05:45.964Z,18.45
2023-05-05T07:06:45.967Z,18.54
2023-05-05T07:07:45.949Z,18.65
2023-05-05T07:08:45.935Z,18.77
2023-05-05T07:09:45.909Z,18.89
2023-05-05T07:10:45.914Z,18.99
2023-05-05T07:11:45.885Z,19.07
2023-05-05T07:12:45.961Z,19.12
2023-05-05T07:13:45.868Z,19.16
2023-05-05T07:14:45.876Z,19.19
2023-05-05T07:15:45.840Z,19.22
2023-05-05T07:16:45.907Z,19.26
2023-05-05T07:17:45.875Z,19.27
2023-05-05T07:18:45.852Z,19.29
2023-05-05T07:19:45.799Z,19.30
2023-05-05T07:20:45.815Z,19.31
2023-05-05T07:21:45.780Z,19.32
2023-05-05T07:22:45.839Z,19.34
2023-05-05T07:23:45.768Z,19.38
2023-05-05T07:24:45.756Z,19.41
2023-05-05T07:25:45.725Z,19.44
2023-05-05T07:26:45.734Z,19.47
2023-05-05T07:27:45.713Z,19.48
2023-05-05T07:28:45.727Z,19.47
2023-05-05T07:29:45.668Z,19.45
2023-05-05T07:30:45.706Z,19.44
2023-05-05T07:31:45.740Z,19.48
2023-05-05T07:32:45.729Z,19.52
2023-05-05T07:33:45.633Z,19.57
2023-05-05T07:34:45.652Z,19.60
2023-05-05T07:35:45.614Z,19.59
2023-05-05T07:36:45.608Z,19.56
2023-05-05T07:37:45.591Z,19.55
2023-05-05T07:38:45.595Z,19.55
2023-05-05T07:39:45.564Z,19.57
2023-05-05T07:40:45.579Z,19.59
2023-05-05T07:41:45.531Z,19.62
2023-05-05T07:42:45.727Z,19.64
2023-05-05T07:43:45.510Z,19.66
2023-05-05T07:44:45.521Z,19.66
2023-05-05T07:45:45.650Z,19.66
2023-05-05T07:46:45.527Z,19.66
2023-05-05T07:47:45.585Z,19.67
2023-05-05T07:48:45.487Z,19.70
2023-05-05T07:49:45.480Z,19.73
2023-05-05T07:50:45.496Z,19.77
2023-05-05T07:51:45.628Z,19.80
2023-05-05T07:52:49.854Z,19.84
2023-05-05T07:53:46.473Z,19.88
2023-05-05T07:54:45.424Z,19.91
2023-05-05T07:55:45.428Z,19.90
2023-05-05T07:56:45.775Z,19.88
2023-05-05T07:57:45.883Z,19.87
2023-05-05T07:58:45.478Z,19.87
2023-05-05T07:59:45.894Z,19.88
2023-05-05T08:00:45.931Z,19.88
2023-05-05T08:01:45.373Z,19.89
2023-05-05T08:02:45.419Z,19.89
2023-05-05T08:03:46.134Z,19.89
2023-05-05T08:04:45.767Z,19.89
2023-05-05T08:05:46.088Z,19.89
2023-05-05T08:06:45.274Z,19.89
2023-05-05T08:07:45.278Z,19.90
2023-05-05T08:08:45.255Z,19.93
2023-05-05T08:09:45.244Z,19.95
2023-05-05T08:10:45.257Z,19.97
2023-05-05T08:11:45.212Z,19.98
2023-05-05T08:12:45.284Z,20.00
2023-05-05T08:13:45.185Z,20.03
2023-05-05T08:14:45.186Z,20.05
2023-05-05T08:15:45.256Z,20.06
2023-05-05T08:16:45.170Z,20.07
2023-05-05T08:17:45.231Z,20.09
2023-05-05T08:18:45.157Z,20.12
2023-05-05T08:19:45.269Z,20.14
2023-05-05T08:20:45.255Z,20.16
2023-05-05T08:21:45.089Z,20.18
2023-05-05T08:22:45.173Z,20.19
2023-05-05T08:23:46.073Z,20.21
2023-05-05T08:24:45.876Z,20.24
2023-05-05T08:25:45.891Z,20.27
2023-05-05T08:26:45.098Z,20.31
2023-05-05T08:27:45.725Z,20.33
2023-05-05T08:28:45.278Z,20.34
2023-05-05T08:29:46.010Z,20.35
2023-05-05T08:30:45.446Z,20.37
2023-05-05T08:31:45.031Z,20.39
2023-05-05T08:32:45.084Z,20.41
2023-05-05T08:33:44.991Z,20.44
2023-05-05T08:34:44.978Z,20.47
2023-05-05T08:35:44.936Z,20.52
2023-05-05T08:36:44.960Z,20.57
2023-05-05T08:37:44.944Z,20.63
2023-05-05T08:38:44.937Z,20.68
2023-05-05T08:39:45.132Z,20.74
2023-05-05T08:40:44.921Z,20.78
2023-05-05T08:41:45.157Z,20.80
2023-05-05T08:42:44.906Z,20.84
2023-05-05T08:43:44.883Z,20.88
2023-05-05T08:44:44.887Z,20.92
2023-05-05T08:45:44.845Z,20.94
2023-05-05T08:46:44.894Z,20.96
2023-05-05T08:47:44.808Z,20.97
2023-05-05T08:48:44.826Z,20.97
2023-05-05T08:49:44.760Z,20.97
2023-05-05T08:50:45.265Z,20.96
2023-05-05T08:51:44.739Z,20.97
2023-05-05T08:52:45.065Z,20.99
2023-05-05T08:53:44.734Z,21.03
2023-05-05T08:54:45.279Z,21.05
2023-05-05T08:55:44.693Z,21.06
2023-05-05T08:56:44.697Z,21.09
2023-05-05T08:57:44.676Z,21.14
2023-05-05T08:58:44.704Z,21.21
2023-05-05T08:59:44.667Z,21.28
2023-05-05T09:00:44.687Z,21.36
2023-05-05T09:01:44.638Z,21.42
2023-05-05T09:02:44.695Z,21.47
2023-05-05T09:03:44.622Z,21.52
2023-05-05T09:04:44.612Z,21.56
2023-05-05T09:05:44.591Z,21.60
2023-05-05T09:06:44.594Z,21.64
2023-05-05T09:07:44.580Z,21.67
2023-05-05T09:08:44.606Z,21.70
2023-05-05T09:09:44.529Z,21.73
2023-05-05T09:10:44.545Z,21.77
2023-05-05T09:11:44.506Z,21.80
2023-05-05T09:12:44.612Z,21.83
2023-05-05T09:13:44.893Z,21.86
2023-05-05T09:14:44.495Z,21.89
2023-05-05T09:15:45.293Z,21.92
2023-05-05T09:16:44.502Z,21.95
2023-05-05T09:17:45.314Z,21.99
2023-05-05T09:18:44.452Z,22.02
2023-05-05T09:19:44.414Z,22.04
2023-05-05T09:20:44.400Z,22.06
2023-05-05T09:21:44.390Z,22.08
2023-05-05T09:22:44.390Z,22.10
2023-05-05T09:23:44.541Z,22.12
2023-05-05T09:24:44.381Z,22.13
2023-05-05T09:25:44.389Z,22.15
2023-05-05T09:26:44.362Z,22.19
2023-05-05T09:27:44.322Z,22.22
2023-05-05T09:28:44.350Z,22.25
2023-05-05T09:29:44.358Z,22.27
2023-05-05T09:30:44.334Z,22.29
2023-05-05T09:31:44.284Z,22.31
2023-05-05T09:32:44.319Z,22.34
2023-05-05T09:33:44.268Z,22.35
2023-05-05T09:34:44.268Z,22.36
2023-05-05T09:35:44.224Z,22.39
2023-05-05T09:36:44.244Z,22.41
2023-05-05T09:37:44.211Z,22.43
2023-05-05T09:38:44.269Z,22.45
2023-05-05T09:39:44.190Z,22.44
2023-05-05T09:40:44.181Z,22.42
2023-05-05T09:41:44.157Z,22.41
2023-05-05T09:42:44.167Z,22.40
2023-05-05T09:43:44.151Z,22.39
2023-05-05T09:44:44.140Z,22.39
2023-05-05T09:45:44.121Z,22.40
2023-05-05T09:46:44.212Z,22.40
2023-05-05T09:47:44.131Z,22.40
2023-05-05T09:48:44.112Z,22.40
2023-05-05T09:49:44.066Z,22.41
2023-05-05T09:50:44.077Z,22.43
2023-05-05T09:51:44.100Z,22.43
2023-05-05T09:52:44.042Z,22.41
2023-05-05T09:53:44.035Z,22.37
2023-05-05T09:54:44.050Z,22.33
2023-05-05T09:55:43.996Z,22.28
2023-05-05T09:56:44.008Z,22.21
2023-05-05T09:57:43.979Z,22.10
2023-05-05T09:58:44.010Z,22.01
2023-05-05T09:59:43.950Z,21.92
2023-05-05T10:00:43.971Z,21.84
2023-05-05T10:01:44.007Z,21.76
2023-05-05T10:02:43.989Z,21.70
2023-05-05T10:03:43.932Z,21.64
2023-05-05T10:04:43.961Z,21.57
2023-05-05T10:05:43.890Z,21.49
2023-05-05T10:06:43.884Z,21.42
2023-05-05T10:07:43.850Z,21.34
2023-05-05T10:08:43.878Z,21.24
2023-05-05T10:09:43.835Z,21.14
2023-05-05T10:10:43.858Z,21.04
2023-05-05T10:11:43.810Z,20.94
2023-05-05T10:12:43.863Z,20.85
2023-05-05T10:13:43.789Z,20.78
2023-05-05T10:14:43.785Z,20.71
2023-05-05T10:15:43.804Z,20.65
2023-05-05T10:16:43.853Z,20.58
2023-05-05T10:17:53.983Z,20.53
2023-05-05T10:18:44.769Z,20.48
2023-05-05T10:19:43.726Z,20.42
2023-05-05T10:20:43.722Z,20.37
2023-05-05T10:21:44.419Z,20.32
2023-05-05T10:22:44.415Z,20.28
2023-05-05T10:23:43.688Z,20.25
2023-05-05T10:24:44.090Z,20.21
2023-05-05T10:25:43.648Z,20.18
2023-05-05T10:26:43.648Z,20.15
2023-05-05T10:27:43.618Z,20.12
2023-05-05T10:28:43.619Z,20.09
2023-05-05T10:29:43.615Z,20.06
2023-05-05T10:30:43.595Z,20.04
2023-05-05T10:31:43.841Z,20.01
2023-05-05T10:33:43.639Z,19.96
2023-05-05T10:34:43.615Z,19.94
2023-05-05T10:35:43.531Z,19.92
2023-05-05T10:36:43.977Z,19.90
2023-05-05T10:37:43.498Z,19.88
2023-05-05T10:38:43.532Z,19.86
2023-05-05T10:39:43.539Z,19.85
2023-05-05T10:40:43.482Z,19.83
2023-05-05T10:41:43.466Z,19.82
2023-05-05T10:42:43.473Z,19.82
2023-05-05T10:43:43.443Z,19.82
2023-05-05T10:44:43.438Z,19.83
2023-05-05T10:45:43.585Z,19.85
2023-05-05T10:46:43.487Z,19.86
2023-05-05T10:47:43.459Z,19.87
2023-05-05T10:48:43.472Z,19.88
2023-05-05T10:49:43.384Z,19.89
2023-05-05T10:50:43.357Z,19.89
2023-05-05T10:51:43.354Z,19.89
2023-05-05T10:52:43.350Z,19.90
2023-05-05T10:53:43.382Z,19.91
2023-05-05T10:54:43.328Z,19.93
2023-05-05T10:55:43.315Z,19.97
2023-05-05T10:56:43.283Z,20.02
2023-05-05T10:57:43.310Z,20.09
2023-05-05T10:58:51.628Z,20.18
2023-05-05T10:59:44.294Z,20.28
2023-05-05T11:00:43.539Z,20.40
2023-05-05T11:01:43.415Z,20.51
2023-05-05T11:02:43.269Z,20.61
2023-05-05T11:03:43.239Z,20.70
2023-05-05T11:04:43.197Z,20.79
2023-05-05T11:05:43.210Z,20.85
2023-05-05T11:06:43.171Z,20.91
2023-05-05T11:07:43.384Z,20.97
2023-05-05T11:08:43.147Z,21.03
2023-05-05T11:09:43.152Z,21.07
2023-05-05T11:10:43.135Z,21.11
2023-05-05T11:11:43.122Z,21.15
2023-05-05T11:12:43.111Z,21.17
2023-05-05T11:13:43.114Z,21.19
2023-05-05T11:14:43.074Z,21.21
2023-05-05T11:15:43.080Z,21.23
2023-05-05T11:16:43.082Z,21.26
2023-05-05T11:17:43.133Z,21.28
2023-05-05T11:18:43.031Z,21.31
2023-05-05T11:19:43.325Z,21.33
2023-05-05T11:20:42.991Z,21.37
2023-05-05T11:21:43.034Z,21.41
2023-05-05T11:22:42.978Z,21.44
2023-05-05T11:23:42.980Z,21.49
2023-05-05T11:24:42.956Z,21.55
2023-05-05T11:25:42.974Z,21.61
2023-05-05T11:26:42.934Z,21.67
2023-05-05T11:27:42.947Z,21.71
2023-05-05T11:28:42.913Z,21.75
2023-05-05T11:29:42.916Z,21.79
2023-05-05T11:30:42.914Z,21.81
2023-05-05T11:31:42.897Z,21.84
2023-05-05T11:32:42.908Z,21.87
2023-05-05T11:33:42.890Z,21.90
2023-05-05T11:34:42.838Z,21.93
2023-05-05T11:35:42.868Z,21.95
2023-05-05T11:36:42.815Z,21.97
2023-05-05T11:37:43.432Z,22.00
2023-05-05T11:38:42.801Z,22.03
2023-05-05T11:39:42.792Z,22.08
2023-05-05T11:40:42.787Z,22.12
2023-05-05T11:41:42.802Z,22.16
2023-05-05T11:42:42.777Z,22.21
2023-05-05T11:43:42.768Z,22.24
2023-05-05T11:44:42.724Z,22.26
2023-05-05T11:45:42.739Z,22.24
2023-05-05T11:46:42.761Z,22.16
2023-05-05T11:47:42.879Z,22.07
2023-05-05T11:48:42.696Z,22.00
2023-05-05T11:49:42.681Z,21.94
2023-05-05T11:50:42.657Z,21.88
2023-05-05T11:51:42.665Z,21.83
2023-05-05T11:52:42.638Z,21.78
2023-05-05T11:53:42.668Z,21.74
2023-05-05T11:54:42.606Z,21.71
2023-05-05T11:55:42.623Z,21.69
2023-05-05T11:56:42.581Z,21.66
2023-05-05T11:57:42.613Z,21.64
2023-05-05T11:58:42.585Z,21.64
2023-05-05T11:59:42.558Z,21.63
2023-05-05T12:00:42.540Z,21.63
2023-05-05T12:01:42.561Z,21.65
2023-05-05T12:02:42.616Z,21.67
2023-05-05T12:03:42.664Z,21.69
2023-05-05T12:04:42.516Z,21.71
2023-05-05T12:05:42.504Z,21.71
2023-05-05T12:06:42.475Z,21.71
2023-05-05T12:07:42.482Z,21.73
2023-05-05T12:08:42.479Z,21.75
2023-05-05T12:09:42.467Z,21.76
2023-05-05T12:10:42.432Z,21.78
2023-05-05T12:11:42.447Z,21.80
2023-05-05T12:12:42.448Z,21.81
2023-05-05T12:13:42.431Z,21.81
2023-05-05T12:14:42.379Z,21.79
2023-05-05T12:15:42.393Z,21.75
2023-05-05T12:16:42.430Z,21.71
2023-05-05T12:17:42.593Z,21.68
2023-05-05T12:18:42.393Z,21.64
2023-05-05T12:19:42.353Z,21.59
2023-05-05T12:20:42.343Z,21.51
2023-05-05T12:21:42.320Z,21.43
2023-05-05T12:22:42.315Z,21.35
2023-05-05T12:23:42.311Z,21.26
2023-05-05T12:24:42.274Z,21.16
2023-05-05T12:25:42.267Z,21.05
2023-05-05T12:26:42.261Z,20.95
2023-05-05T12:27:42.259Z,20.86
2023-05-05T12:28:42.242Z,20.79
2023-05-05T12:29:42.239Z,20.73
2023-05-05T12:30:42.226Z,20.66
2023-05-05T12:31:42.282Z,20.56
2023-05-05T12:32:42.248Z,20.47
2023-05-05T12:33:42.222Z,20.37
2023-05-05T12:34:42.160Z,20.29
2023-05-05T12:35:42.191Z,20.21
2023-05-05T12:36:42.205Z,20.10
2023-05-05T12:37:42.146Z,19.98
2023-05-05T12:38:42.115Z,19.87
2023-05-05T12:39:42.117Z,19.75
2023-05-05T12:40:42.114Z,19.64
2023-05-05T12:41:42.088Z,19.54
2023-05-05T12:42:42.442Z,19.45
2023-05-05T12:43:42.087Z,19.39
2023-05-05T12:44:42.044Z,19.34
2023-05-05T12:45:42.062Z,19.30
2023-05-05T12:46:42.034Z,19.27
2023-05-05T12:47:42.074Z,19.24
2023-05-05T12:48:41.989Z,19.20
2023-05-05T12:49:41.999Z,19.15
2023-05-05T12:50:41.982Z,19.10
2023-05-05T12:51:42.481Z,19.06
2023-05-05T12:52:41.949Z,19.01
2023-05-05T12:53:42.021Z,18.95